Flight Track Log - Related Links

Times and Time Zones

All times are in EDT time to prevent confusion due to time zone crossing. See the UAL4853 flight status page for this flight to view local times or setup timezone preferences in your user account.

Time Position Orientation Groundspeed Altitude Reporting Facility
EDT Latitude Longitude Course Direction KTS MPH feet Rate Location/Type
Fri 08:45:43 PM 41.4217 -81.8319 54° Northeast 118 136 1,600  Level Cleveland Center
Fri 08:46:20 PM 41.4322 -81.8128 54° Northeast 126 145 2,200 1,175 Climbing Cleveland Center
Fri 08:47:20 PM 41.4411 -81.7547 78° East 151 174 3,500 1,200 Climbing Cleveland Center
Fri 08:48:00 PM 41.4289 -81.7297 123° Southeast 163 188 4,200 1,377 Climbing Cleveland Center
Fri 08:48:21 PM 41.4167 -81.7100 130° Southeast 159 183 4,900 1,300 Climbing Cleveland Center
Fri 08:49:00 PM 41.4022 -81.6847 127° Southeast 167 192 5,500 1,152 Climbing Cleveland Center
Fri 08:50:00 PM 41.3694 -81.6372 133° Southeast 178 205 6,800 1,250 Climbing Cleveland Center
Fri 08:51:00 PM 41.3428 -81.5733 119° Southeast 178 205 8,000 1,100 Climbing Cleveland Center
Fri 08:52:00 PM 41.3267 -81.5094 109° East 178 205 9,000 550 Climbing Cleveland Center
Fri 08:53:00 PM 41.2917 -81.4453 126° Southeast 198 228 9,100 700 Climbing Cleveland Center
Fri 08:54:00 PM 41.2483 -81.3894 136° Southeast 214 246 10,400 1,200 Climbing Cleveland Center
Fri 08:55:00 PM 41.2092 -81.3394 136° Southeast 208 239 11,500 1,050 Climbing Cleveland Center
Fri 08:56:00 PM 41.1719 -81.2892 135° Southeast 197 227 12,500 850 Climbing Cleveland Center
Fri 08:57:00 PM 41.1389 -81.2447 135° Southeast 192 221 13,200 800 Climbing Cleveland Center
Fri 08:58:00 PM 41.1017 -81.1894 132° Southeast 197 227 14,100 1,000 Climbing Cleveland Center
Fri 08:59:00 PM 41.0831 -81.1203 110° East 197 227 15,200 1,050 Climbing Cleveland Center
Fri 09:00:00 PM 41.0647 -81.0403 107° East 197 227 16,200 950 Climbing Cleveland Center
Fri 09:01:00 PM 41.0442 -80.9714 112° Southeast 197 227 17,100 850 Climbing Cleveland Center
Fri 09:02:00 PM 41.0256 -80.9025 110° East 192 221 17,900 700 Climbing Cleveland Center
Fri 09:03:00 PM 41.0028 -80.8308 113° Southeast 197 227 18,500 650 Climbing Cleveland Center
Fri 09:04:00 PM 40.9822 -80.7592 111° Southeast 197 227 19,200 750 Climbing Cleveland Center
Fri 09:05:00 PM 40.9636 -80.6875 109° East 202 232 20,000 700 Climbing Cleveland Center
Fri 09:06:00 PM 40.9428 -80.6161 111° Southeast 202 232 20,600 600 Climbing Cleveland Center
Fri 09:07:00 PM 40.9219 -80.5447 111° Southeast 202 232 21,200 650 Climbing Cleveland Center
Fri 09:08:00 PM 40.9031 -80.4733 109° East 202 232 21,900 650 Climbing Cleveland Center
Fri 09:09:00 PM 40.8800 -80.4019 113° Southeast 207 238 22,500 550 Climbing Cleveland Center
Fri 09:10:00 PM 40.8611 -80.3442 113° Southeast 207 238 23,000 250 Climbing Cleveland Center
Fri 09:11:00 PM 40.8381 -80.2703 112° Southeast 207 238 23,000  Level Cleveland Center
Fri 09:12:00 PM 40.8150 -80.1936 112° Southeast 214 246 23,000  Level Cleveland Center
Fri 09:13:00 PM 40.7894 -80.1033 110° East 226 260 23,000  Level Cleveland Center
Fri 09:14:00 PM 40.7767 -80.0156 101° East 238 274 23,000  Level Cleveland Center
Fri 09:15:00 PM 40.7658 -79.9225 99° East 243 280 23,000  Level Cleveland Center
Fri 09:16:00 PM 40.7525 -79.8322 101° East 243 280 23,000 -200 Level Cleveland Center
Fri 09:17:00 PM 40.7394 -79.7392 100° East 243 280 22,600 -700 Descending Cleveland Center
Fri 09:18:00 PM 40.7242 -79.6406 102° East 254 292 21,600 -1,000 Descending Cleveland Center
Fri 09:19:00 PM 40.7086 -79.5367 101° East 274 315 20,600 -1,000 Descending Cleveland Center
Fri 09:20:00 PM 40.6908 -79.4275 102° East 285 328 19,600 -1,000 Descending Cleveland Center
Fri 09:21:00 PM 40.6753 -79.3211 101° East 295 339 18,600 -850 Descending Cleveland Center
Fri 09:22:00 PM 40.6594 -79.2119 101° East 295 339 17,900 -850 Descending Cleveland Center
Fri 09:23:00 PM 40.6414 -79.1083 103° East 295 339 16,900 -1,000 Descending Cleveland Center
Fri 09:24:00 PM 40.6253 -78.9992 101° East 295 339 15,900 -950 Descending Cleveland Center
Fri 09:25:00 PM 40.6069 -78.8931 103° East 295 339 15,000 -950 Descending Cleveland Center
Fri 09:26:00 PM 40.5889 -78.7950 104° East 290 334 14,000 -1,000 Descending Cleveland Center
Fri 09:27:00 PM 40.5769 -78.7050 100° East 285 328 13,000 -1,000 Descending Cleveland Center
Fri 09:28:00 PM 40.5608 -78.6072 102° East 272 313 12,000 -1,000 Descending Cleveland Center
Fri 09:29:00 PM 40.5467 -78.5147 101° East 272 313 11,000 -550 Descending Cleveland Center
Fri 09:30:00 PM 40.5303 -78.4222 103° East 266 306 10,900 -64 Descending Cleveland Center
Fri 09:30:34 PM 40.5219 -78.3647 101° East 260 299 10,900 63 Level New York Center
Fri 09:31:35 PM 40.5067 -78.2756 103° East 260 299 11,000 50 Climbing New York Center
Fri 09:32:35 PM 40.4950 -78.1978 101° East 249 287 11,000  Level New York Center
Fri 09:33:33 PM 40.4794 -78.1089 103° East 244 281 11,000  Level New York Center
Fri 09:34:33 PM 40.4661 -78.0228 101° East 244 281 11,000  Level New York Center
Fri 09:35:33 PM 40.4489 -77.9308 104° East 244 281 11,000  Level New York Center
Fri 09:36:34 PM 40.4356 -77.8394 101° East 244 281 11,000 -443 Level New York Center
Fri 09:37:35 PM 40.4200 -77.7506 103° East 244 281 10,100 -1,210 Descending New York Center
Fri 09:38:33 PM 40.3992 -77.6450 104° East 261 300 8,600 -1,538 Descending New York Center
Fri 09:39:32 PM 40.3853 -77.5589 102° East 255 293 7,100 -800 Descending New York Center
Fri 09:40:33 PM 40.3650 -77.4753 108° East 243 280 7,000 -50 Descending New York Center
Fri 09:41:33 PM 40.3444 -77.3942 108° East 232 267 7,000  Level New York Center
Fri 09:42:34 PM 40.3261 -77.3136 107° East 232 267 7,000 -202 Level New York Center
Fri 09:43:32 PM 40.3056 -77.2325 108° East 232 267 6,600 -807 Descending New York Center
Fri 09:44:33 PM 40.2869 -77.1519 107° East 232 267 5,400 -1,488 Descending New York Center
Fri 09:45:33 PM 40.2664 -77.0711 108° East 232 267 3,600 -1,210 Descending New York Center
Fri 09:46:32 PM 40.2581 -76.9889 98° East 232 267 3,000 -400 Descending New York Center
Fri 09:47:33 PM 40.2556 -76.9206 93° East 212 244 2,800 -295 Descending New York Center
Fri 09:48:34 PM 40.2422 -76.8567 105° East 202 232 2,400 -393 Descending New York Center
Fri 09:52:00 PM 40.1893 -76.7648 118° Southeast  Level FlightAware Approximate

Login

Don't have an account? Register now (free) for customized features, flight alerts, and more!